sensor_id;sensor_type;location;lat;lon;timestamp;P1;durP1;ratioP1;P2;durP2;ratioP2
44456;SDS011;30159;49.316;8.558;2023-08-31T00:01:57;1.87;;;1.77;;
44456;SDS011;30159;49.316;8.558;2023-08-31T00:04:24;1.93;;;1.40;;
44456;SDS011;30159;49.316;8.558;2023-08-31T00:06:51;2.87;;;1.40;;
44456;SDS011;30159;49.316;8.558;2023-08-31T00:09:17;1.20;;;1.10;;
44456;SDS011;30159;49.316;8.558;2023-08-31T00:11:44;1.60;;;1.30;;
44456;SDS011;30159;49.316;8.558;2023-08-31T00:14:10;1.10;;;1.00;;
44456;SDS011;30159;49.316;8.558;2023-08-31T00:16:37;1.00;;;0.90;;
44456;SDS011;30159;49.316;8.558;2023-08-31T00:19:05;1.73;;;1.17;;
44456;SDS011;30159;49.316;8.558;2023-08-31T00:21:32;1.60;;;1.50;;
44456;SDS011;30159;49.316;8.558;2023-08-31T00:23:58;2.07;;;1.20;;
44456;SDS011;30159;49.316;8.558;2023-08-31T00:26:25;1.60;;;1.40;;
44456;SDS011;30159;49.316;8.558;2023-08-31T00:28:52;1.37;;;1.27;;
44456;SDS011;30159;49.316;8.558;2023-08-31T00:31:18;1.40;;;1.13;;
44456;SDS011;30159;49.316;8.558;2023-08-31T00:33:46;1.30;;;1.20;;
44456;SDS011;30159;49.316;8.558;2023-08-31T00:36:15;1.20;;;1.10;;
44456;SDS011;30159;49.316;8.558;2023-08-31T00:38:43;1.30;;;1.20;;
44456;SDS011;30159;49.316;8.558;2023-08-31T00:41:09;1.33;;;1.10;;
44456;SDS011;30159;49.316;8.558;2023-08-31T00:43:36;1.87;;;1.20;;
44456;SDS011;30159;49.316;8.558;2023-08-31T00:46:03;2.17;;;1.40;;
44456;SDS011;30159;49.316;8.558;2023-08-31T00:48:29;1.40;;;1.20;;
44456;SDS011;30159;49.316;8.558;2023-08-31T00:50:56;1.30;;;1.20;;
44456;SDS011;30159;49.316;8.558;2023-08-31T00:53:24;1.37;;;1.27;;
44456;SDS011;30159;49.316;8.558;2023-08-31T00:55:51;1.77;;;0.93;;
44456;SDS011;30159;49.316;8.558;2023-08-31T00:58:18;1.37;;;1.23;;
44456;SDS011;30159;49.316;8.558;2023-08-31T01:00:46;1.50;;;1.10;;
44456;SDS011;30159;49.316;8.558;2023-08-31T01:03:22;1.27;;;1.17;;
44456;SDS011;30159;49.316;8.558;2023-08-31T01:05:59;1.13;;;1.00;;
44456;SDS011;30159;49.316;8.558;2023-08-31T01:08:35;1.47;;;1.37;;
44456;SDS011;30159;49.316;8.558;2023-08-31T01:11:12;2.40;;;1.40;;
44456;SDS011;30159;49.316;8.558;2023-08-31T01:13:48;6.80;;;1.17;;
44456;SDS011;30159;49.316;8.558;2023-08-31T01:16:19;1.10;;;1.00;;
44456;SDS011;30159;49.316;8.558;2023-08-31T01:18:49;1.50;;;1.33;;
44456;SDS011;30159;49.316;8.558;2023-08-31T01:21:18;1.60;;;1.50;;
44456;SDS011;30159;49.316;8.558;2023-08-31T01:23:52;1.30;;;1.20;;
44456;SDS011;30159;49.316;8.558;2023-08-31T01:26:20;6.43;;;1.43;;
44456;SDS011;30159;49.316;8.558;2023-08-31T01:28:47;2.60;;;1.30;;
44456;SDS011;30159;49.316;8.558;2023-08-31T01:31:15;2.13;;;1.40;;
44456;SDS011;30159;49.316;8.558;2023-08-31T01:33:42;1.60;;;1.40;;
44456;SDS011;30159;49.316;8.558;2023-08-31T01:36:11;1.30;;;1.20;;
44456;SDS011;30159;49.316;8.558;2023-08-31T01:38:42;3.07;;;1.40;;
44456;SDS011;30159;49.316;8.558;2023-08-31T01:41:16;1.90;;;1.43;;
44456;SDS011;30159;49.316;8.558;2023-08-31T01:43:45;2.97;;;1.80;;
44456;SDS011;30159;49.316;8.558;2023-08-31T01:46:14;1.80;;;1.50;;
44456;SDS011;30159;49.316;8.558;2023-08-31T01:48:41;1.67;;;1.40;;
44456;SDS011;30159;49.316;8.558;2023-08-31T01:51:09;2.33;;;1.60;;
44456;SDS011;30159;49.316;8.558;2023-08-31T01:53:36;1.70;;;1.60;;
44456;SDS011;30159;49.316;8.558;2023-08-31T01:56:03;3.17;;;1.90;;
44456;SDS011;30159;49.316;8.558;2023-08-31T01:58:32;1.83;;;1.73;;
44456;SDS011;30159;49.316;8.558;2023-08-31T02:00:58;1.70;;;1.50;;
44456;SDS011;30159;49.316;8.558;2023-08-31T02:03:25;6.00;;;1.70;;
44456;SDS011;30159;49.316;8.558;2023-08-31T02:05:52;2.03;;;1.80;;
44456;SDS011;30159;49.316;8.558;2023-08-31T02:08:18;3.30;;;2.27;;
44456;SDS011;30159;49.316;8.558;2023-08-31T02:10:45;2.13;;;1.30;;
44456;SDS011;30159;49.316;8.558;2023-08-31T02:13:13;1.60;;;1.40;;
44456;SDS011;30159;49.316;8.558;2023-08-31T02:15:41;2.30;;;2.10;;
44456;SDS011;30159;49.316;8.558;2023-08-31T02:18:08;1.37;;;1.27;;
44456;SDS011;30159;49.316;8.558;2023-08-31T02:20:35;3.33;;;1.40;;
44456;SDS011;30159;49.316;8.558;2023-08-31T02:23:02;1.70;;;1.60;;
44456;SDS011;30159;49.316;8.558;2023-08-31T02:25:28;2.00;;;1.50;;
44456;SDS011;30159;49.316;8.558;2023-08-31T02:27:55;2.67;;;1.50;;
44456;SDS011;30159;49.316;8.558;2023-08-31T02:30:21;2.17;;;1.97;;
44456;SDS011;30159;49.316;8.558;2023-08-31T02:32:49;1.50;;;1.37;;
44456;SDS011;30159;49.316;8.558;2023-08-31T02:35:16;1.73;;;1.57;;
44456;SDS011;30159;49.316;8.558;2023-08-31T02:37:42;1.90;;;1.53;;
44456;SDS011;30159;49.316;8.558;2023-08-31T02:40:10;4.87;;;1.70;;
44456;SDS011;30159;49.316;8.558;2023-08-31T02:42:37;2.10;;;1.90;;
44456;SDS011;30159;49.316;8.558;2023-08-31T02:45:03;2.57;;;1.60;;
44456;SDS011;30159;49.316;8.558;2023-08-31T02:47:31;1.30;;;1.20;;
44456;SDS011;30159;49.316;8.558;2023-08-31T02:49:59;2.23;;;1.70;;
44456;SDS011;30159;49.316;8.558;2023-08-31T02:52:25;3.20;;;1.47;;
44456;SDS011;30159;49.316;8.558;2023-08-31T02:54:52;1.53;;;1.43;;
44456;SDS011;30159;49.316;8.558;2023-08-31T02:57:19;1.43;;;1.30;;
44456;SDS011;30159;49.316;8.558;2023-08-31T02:59:49;1.80;;;1.53;;
44456;SDS011;30159;49.316;8.558;2023-08-31T03:02:16;3.50;;;1.73;;
44456;SDS011;30159;49.316;8.558;2023-08-31T03:04:43;1.60;;;1.50;;
44456;SDS011;30159;49.316;8.558;2023-08-31T03:07:10;1.60;;;1.50;;
44456;SDS011;30159;49.316;8.558;2023-08-31T03:09:38;4.53;;;1.30;;
44456;SDS011;30159;49.316;8.558;2023-08-31T03:12:05;5.63;;;2.03;;
44456;SDS011;30159;49.316;8.558;2023-08-31T03:14:32;1.40;;;1.30;;
44456;SDS011;30159;49.316;8.558;2023-08-31T03:16:59;2.17;;;1.40;;
44456;SDS011;30159;49.316;8.558;2023-08-31T03:19:25;2.50;;;1.90;;
44456;SDS011;30159;49.316;8.558;2023-08-31T03:21:52;1.90;;;1.70;;
44456;SDS011;30159;49.316;8.558;2023-08-31T03:24:20;1.67;;;1.40;;
44456;SDS011;30159;49.316;8.558;2023-08-31T03:26:48;2.03;;;1.20;;
44456;SDS011;30159;49.316;8.558;2023-08-31T03:29:14;3.00;;;1.40;;
44456;SDS011;30159;49.316;8.558;2023-08-31T03:31:41;1.73;;;1.50;;
44456;SDS011;30159;49.316;8.558;2023-08-31T03:34:07;2.03;;;1.83;;
44456;SDS011;30159;49.316;8.558;2023-08-31T03:36:34;3.10;;;1.37;;
44456;SDS011;30159;49.316;8.558;2023-08-31T03:39:01;1.87;;;1.70;;
44456;SDS011;30159;49.316;8.558;2023-08-31T03:41:30;3.33;;;2.00;;
44456;SDS011;30159;49.316;8.558;2023-08-31T03:43:56;1.50;;;1.30;;
44456;SDS011;30159;49.316;8.558;2023-08-31T03:46:23;1.40;;;1.30;;
44456;SDS011;30159;49.316;8.558;2023-08-31T03:48:51;1.47;;;1.27;;
44456;SDS011;30159;49.316;8.558;2023-08-31T03:51:18;7.60;;;1.40;;
44456;SDS011;30159;49.316;8.558;2023-08-31T03:53:44;1.40;;;1.30;;
44456;SDS011;30159;49.316;8.558;2023-08-31T03:56:11;1.90;;;1.53;;
44456;SDS011;30159;49.316;8.558;2023-08-31T03:58:39;1.70;;;1.60;;
44456;SDS011;30159;49.316;8.558;2023-08-31T04:01:06;1.50;;;1.40;;
44456;SDS011;30159;49.316;8.558;2023-08-31T04:03:35;2.27;;;1.50;;
44456;SDS011;30159;49.316;8.558;2023-08-31T04:06:01;1.30;;;1.20;;
44456;SDS011;30159;49.316;8.558;2023-08-31T04:08:30;1.80;;;1.70;;
44456;SDS011;30159;49.316;8.558;2023-08-31T04:10:56;1.60;;;1.37;;
44456;SDS011;30159;49.316;8.558;2023-08-31T04:13:23;1.43;;;1.20;;
44456;SDS011;30159;49.316;8.558;2023-08-31T04:15:51;4.40;;;1.40;;
44456;SDS011;30159;49.316;8.558;2023-08-31T04:18:18;2.17;;;1.20;;
44456;SDS011;30159;49.316;8.558;2023-08-31T04:20:48;1.50;;;1.40;;
44456;SDS011;30159;49.316;8.558;2023-08-31T04:23:17;1.60;;;1.30;;
44456;SDS011;30159;49.316;8.558;2023-08-31T04:25:43;1.80;;;1.53;;
44456;SDS011;30159;49.316;8.558;2023-08-31T04:28:10;2.43;;;1.40;;
44456;SDS011;30159;49.316;8.558;2023-08-31T04:30:37;2.60;;;1.70;;
44456;SDS011;30159;49.316;8.558;2023-08-31T04:33:06;2.07;;;1.87;;
44456;SDS011;30159;49.316;8.558;2023-08-31T04:35:33;2.47;;;1.37;;
44456;SDS011;30159;49.316;8.558;2023-08-31T04:38:00;1.70;;;1.47;;
44456;SDS011;30159;49.316;8.558;2023-08-31T04:40:27;1.83;;;1.73;;
44456;SDS011;30159;49.316;8.558;2023-08-31T04:42:53;1.50;;;1.40;;
44456;SDS011;30159;49.316;8.558;2023-08-31T04:45:20;1.73;;;1.63;;
44456;SDS011;30159;49.316;8.558;2023-08-31T04:47:47;1.90;;;1.70;;
44456;SDS011;30159;49.316;8.558;2023-08-31T04:50:15;2.00;;;1.80;;
44456;SDS011;30159;49.316;8.558;2023-08-31T04:52:42;1.63;;;1.40;;
44456;SDS011;30159;49.316;8.558;2023-08-31T04:55:08;1.93;;;1.60;;
44456;SDS011;30159;49.316;8.558;2023-08-31T04:57:38;1.30;;;1.20;;
44456;SDS011;30159;49.316;8.558;2023-08-31T05:00:05;2.63;;;1.73;;
44456;SDS011;30159;49.316;8.558;2023-08-31T05:02:34;1.53;;;1.30;;
44456;SDS011;30159;49.316;8.558;2023-08-31T05:05:00;1.80;;;1.53;;
44456;SDS011;30159;49.316;8.558;2023-08-31T05:07:29;2.57;;;1.70;;
44456;SDS011;30159;49.316;8.558;2023-08-31T05:09:55;1.63;;;1.43;;
44456;SDS011;30159;49.316;8.558;2023-08-31T05:12:22;2.03;;;1.80;;
44456;SDS011;30159;49.316;8.558;2023-08-31T05:14:48;1.50;;;1.40;;
44456;SDS011;30159;49.316;8.558;2023-08-31T05:17:15;2.07;;;1.90;;
44456;SDS011;30159;49.316;8.558;2023-08-31T05:19:41;2.00;;;1.57;;
44456;SDS011;30159;49.316;8.558;2023-08-31T05:22:08;2.60;;;1.90;;
44456;SDS011;30159;49.316;8.558;2023-08-31T05:24:36;3.40;;;2.13;;
44456;SDS011;30159;49.316;8.558;2023-08-31T05:27:03;1.77;;;1.67;;
44456;SDS011;30159;49.316;8.558;2023-08-31T05:29:30;1.90;;;1.67;;
44456;SDS011;30159;49.316;8.558;2023-08-31T05:31:57;2.33;;;1.60;;
44456;SDS011;30159;49.316;8.558;2023-08-31T05:34:24;2.80;;;1.83;;
44456;SDS011;30159;49.316;8.558;2023-08-31T05:36:51;1.70;;;1.60;;
44456;SDS011;30159;49.316;8.558;2023-08-31T05:39:17;2.00;;;1.73;;
44456;SDS011;30159;49.316;8.558;2023-08-31T05:41:45;1.80;;;1.40;;
44456;SDS011;30159;49.316;8.558;2023-08-31T05:44:12;1.83;;;1.70;;
44456;SDS011;30159;49.316;8.558;2023-08-31T05:46:38;3.30;;;2.10;;
44456;SDS011;30159;49.316;8.558;2023-08-31T05:49:06;1.50;;;1.40;;
44456;SDS011;30159;49.316;8.558;2023-08-31T05:51:33;3.63;;;1.57;;
44456;SDS011;30159;49.316;8.558;2023-08-31T05:53:59;3.67;;;2.70;;
44456;SDS011;30159;49.316;8.558;2023-08-31T05:56:26;1.87;;;1.67;;
44456;SDS011;30159;49.316;8.558;2023-08-31T05:58:54;1.67;;;1.57;;
44456;SDS011;30159;49.316;8.558;2023-08-31T06:01:21;2.87;;;1.97;;
44456;SDS011;30159;49.316;8.558;2023-08-31T06:03:48;2.00;;;1.83;;
44456;SDS011;30159;49.316;8.558;2023-08-31T06:06:14;2.00;;;1.90;;
44456;SDS011;30159;49.316;8.558;2023-08-31T06:08:41;2.33;;;1.93;;
44456;SDS011;30159;49.316;8.558;2023-08-31T06:11:08;1.90;;;1.60;;
44456;SDS011;30159;49.316;8.558;2023-08-31T06:13:35;1.90;;;1.80;;
44456;SDS011;30159;49.316;8.558;2023-08-31T06:16:03;5.20;;;2.30;;
44456;SDS011;30159;49.316;8.558;2023-08-31T06:18:29;3.70;;;1.90;;
44456;SDS011;30159;49.316;8.558;2023-08-31T06:20:56;2.30;;;1.90;;
44456;SDS011;30159;49.316;8.558;2023-08-31T06:23:22;1.70;;;1.50;;
44456;SDS011;30159;49.316;8.558;2023-08-31T06:25:49;1.70;;;1.57;;
44456;SDS011;30159;49.316;8.558;2023-08-31T06:28:16;1.97;;;1.87;;
44456;SDS011;30159;49.316;8.558;2023-08-31T06:30:42;1.50;;;1.40;;
44456;SDS011;30159;49.316;8.558;2023-08-31T06:33:12;1.90;;;1.27;;
44456;SDS011;30159;49.316;8.558;2023-08-31T06:35:39;1.63;;;1.53;;
44456;SDS011;30159;49.316;8.558;2023-08-31T06:38:06;1.50;;;1.40;;
44456;SDS011;30159;49.316;8.558;2023-08-31T06:40:33;1.87;;;1.40;;
44456;SDS011;30159;49.316;8.558;2023-08-31T06:42:59;1.43;;;1.23;;
44456;SDS011;30159;49.316;8.558;2023-08-31T06:45:26;1.30;;;1.17;;
44456;SDS011;30159;49.316;8.558;2023-08-31T06:47:52;2.23;;;1.50;;
44456;SDS011;30159;49.316;8.558;2023-08-31T06:50:20;1.67;;;1.40;;
44456;SDS011;30159;49.316;8.558;2023-08-31T06:52:47;1.50;;;1.40;;
44456;SDS011;30159;49.316;8.558;2023-08-31T06:55:13;5.50;;;1.20;;
44456;SDS011;30159;49.316;8.558;2023-08-31T06:57:40;1.40;;;1.30;;
44456;SDS011;30159;49.316;8.558;2023-08-31T07:00:08;1.27;;;1.17;;
44456;SDS011;30159;49.316;8.558;2023-08-31T07:02:38;1.57;;;1.27;;
44456;SDS011;30159;49.316;8.558;2023-08-31T07:05:06;1.43;;;1.10;;
44456;SDS011;30159;49.316;8.558;2023-08-31T07:07:34;1.30;;;1.07;;
44456;SDS011;30159;49.316;8.558;2023-08-31T07:10:00;1.30;;;1.20;;
44456;SDS011;30159;49.316;8.558;2023-08-31T07:12:27;1.00;;;0.90;;
44456;SDS011;30159;49.316;8.558;2023-08-31T07:14:54;1.17;;;1.03;;
44456;SDS011;30159;49.316;8.558;2023-08-31T07:17:20;1.00;;;0.80;;
44456;SDS011;30159;49.316;8.558;2023-08-31T07:19:47;1.17;;;1.00;;
44456;SDS011;30159;49.316;8.558;2023-08-31T07:22:13;2.20;;;1.27;;
44456;SDS011;30159;49.316;8.558;2023-08-31T07:24:42;2.90;;;0.90;;
44456;SDS011;30159;49.316;8.558;2023-08-31T07:27:09;1.20;;;1.03;;
44456;SDS011;30159;49.316;8.558;2023-08-31T07:29:36;2.60;;;1.20;;
44456;SDS011;30159;49.316;8.558;2023-08-31T07:32:03;1.13;;;1.00;;
44456;SDS011;30159;49.316;8.558;2023-08-31T07:34:29;0.90;;;0.80;;
44456;SDS011;30159;49.316;8.558;2023-08-31T07:36:56;1.63;;;1.00;;
44456;SDS011;30159;49.316;8.558;2023-08-31T07:39:23;3.20;;;0.90;;
44456;SDS011;30159;49.316;8.558;2023-08-31T07:41:52;1.00;;;0.90;;
44456;SDS011;30159;49.316;8.558;2023-08-31T07:44:21;1.00;;;0.80;;
44456;SDS011;30159;49.316;8.558;2023-08-31T07:46:47;1.10;;;1.00;;
44456;SDS011;30159;49.316;8.558;2023-08-31T07:49:14;2.40;;;0.83;;
44456;SDS011;30159;49.316;8.558;2023-08-31T07:51:40;1.00;;;0.87;;
44456;SDS011;30159;49.316;8.558;2023-08-31T07:54:07;1.30;;;0.80;;
44456;SDS011;30159;49.316;8.558;2023-08-31T07:56:34;1.20;;;1.00;;
44456;SDS011;30159;49.316;8.558;2023-08-31T07:59:02;1.50;;;0.90;;
44456;SDS011;30159;49.316;8.558;2023-08-31T08:01:29;0.87;;;0.80;;
44456;SDS011;30159;49.316;8.558;2023-08-31T08:03:55;2.07;;;0.97;;
44456;SDS011;30159;49.316;8.558;2023-08-31T08:06:22;1.00;;;0.80;;
44456;SDS011;30159;49.316;8.558;2023-08-31T08:08:49;1.60;;;0.80;;
44456;SDS011;30159;49.316;8.558;2023-08-31T08:11:15;1.00;;;0.87;;
44456;SDS011;30159;49.316;8.558;2023-08-31T08:13:42;1.00;;;0.80;;
44456;SDS011;30159;49.316;8.558;2023-08-31T08:16:10;2.20;;;1.30;;
44456;SDS011;30159;49.316;8.558;2023-08-31T08:18:36;1.20;;;0.83;;
44456;SDS011;30159;49.316;8.558;2023-08-31T08:21:03;2.30;;;1.23;;
44456;SDS011;30159;49.316;8.558;2023-08-31T08:23:30;0.93;;;0.80;;
44456;SDS011;30159;49.316;8.558;2023-08-31T08:25:56;1.13;;;0.90;;
44456;SDS011;30159;49.316;8.558;2023-08-31T08:28:24;1.10;;;0.80;;
44456;SDS011;30159;49.316;8.558;2023-08-31T08:30:51;1.00;;;0.90;;
44456;SDS011;30159;49.316;8.558;2023-08-31T08:33:19;2.20;;;1.20;;
44456;SDS011;30159;49.316;8.558;2023-08-31T08:35:45;1.93;;;0.90;;
44456;SDS011;30159;49.316;8.558;2023-08-31T08:38:12;1.00;;;0.80;;
44456;SDS011;30159;49.316;8.558;2023-08-31T08:40:38;1.00;;;0.83;;
44456;SDS011;30159;49.316;8.558;2023-08-31T08:43:06;1.20;;;0.80;;
44456;SDS011;30159;49.316;8.558;2023-08-31T08:45:35;0.97;;;0.87;;
44456;SDS011;30159;49.316;8.558;2023-08-31T08:48:04;1.20;;;1.00;;
44456;SDS011;30159;49.316;8.558;2023-08-31T08:50:34;0.90;;;0.77;;
44456;SDS011;30159;49.316;8.558;2023-08-31T08:53:01;2.07;;;0.83;;
44456;SDS011;30159;49.316;8.558;2023-08-31T08:55:28;1.57;;;0.80;;
44456;SDS011;30159;49.316;8.558;2023-08-31T08:57:55;1.20;;;1.00;;
44456;SDS011;30159;49.316;8.558;2023-08-31T09:00:23;0.80;;;0.80;;
44456;SDS011;30159;49.316;8.558;2023-08-31T09:02:50;1.90;;;0.80;;
44456;SDS011;30159;49.316;8.558;2023-08-31T09:05:17;2.20;;;1.23;;
44456;SDS011;30159;49.316;8.558;2023-08-31T09:08:01;1.10;;;0.83;;
44456;SDS011;30159;49.316;8.558;2023-08-31T09:10:37;1.00;;;0.90;;
44456;SDS011;30159;49.316;8.558;2023-08-31T09:13:06;1.10;;;0.90;;
44456;SDS011;30159;49.316;8.558;2023-08-31T09:15:40;3.13;;;1.20;;
44456;SDS011;30159;49.316;8.558;2023-08-31T09:18:13;1.43;;;0.93;;
44456;SDS011;30159;49.316;8.558;2023-08-31T09:20:44;1.00;;;0.80;;
44456;SDS011;30159;49.316;8.558;2023-08-31T09:23:13;0.90;;;0.70;;
44456;SDS011;30159;49.316;8.558;2023-08-31T09:25:43;1.80;;;1.00;;
44456;SDS011;30159;49.316;8.558;2023-08-31T09:28:11;1.33;;;0.80;;
44456;SDS011;30159;49.316;8.558;2023-08-31T09:30:38;1.20;;;1.00;;
44456;SDS011;30159;49.316;8.558;2023-08-31T09:33:06;1.37;;;1.03;;
44456;SDS011;30159;49.316;8.558;2023-08-31T09:35:34;1.20;;;0.90;;
44456;SDS011;30159;49.316;8.558;2023-08-31T09:38:05;1.47;;;0.80;;
44456;SDS011;30159;49.316;8.558;2023-08-31T09:40:35;2.30;;;0.80;;
44456;SDS011;30159;49.316;8.558;2023-08-31T09:43:02;1.70;;;0.90;;
44456;SDS011;30159;49.316;8.558;2023-08-31T09:45:29;1.47;;;0.80;;
44456;SDS011;30159;49.316;8.558;2023-08-31T09:47:58;1.67;;;0.70;;
44456;SDS011;30159;49.316;8.558;2023-08-31T09:50:25;0.80;;;0.80;;
44456;SDS011;30159;49.316;8.558;2023-08-31T09:52:53;1.37;;;0.80;;
44456;SDS011;30159;49.316;8.558;2023-08-31T09:55:22;1.93;;;0.80;;
44456;SDS011;30159;49.316;8.558;2023-08-31T09:57:52;0.80;;;0.60;;
44456;SDS011;30159;49.316;8.558;2023-08-31T10:00:22;1.43;;;0.80;;
44456;SDS011;30159;49.316;8.558;2023-08-31T10:02:49;1.00;;;0.77;;
44456;SDS011;30159;49.316;8.558;2023-08-31T10:05:17;1.00;;;0.80;;
44456;SDS011;30159;49.316;8.558;2023-08-31T10:07:43;1.00;;;0.73;;
44456;SDS011;30159;49.316;8.558;2023-08-31T10:10:11;0.80;;;0.70;;
44456;SDS011;30159;49.316;8.558;2023-08-31T10:12:38;0.90;;;0.80;;
44456;SDS011;30159;49.316;8.558;2023-08-31T10:15:09;1.70;;;0.80;;
44456;SDS011;30159;49.316;8.558;2023-08-31T10:17:37;0.83;;;0.70;;
44456;SDS011;30159;49.316;8.558;2023-08-31T10:20:06;1.87;;;0.90;;
44456;SDS011;30159;49.316;8.558;2023-08-31T10:22:34;1.07;;;0.90;;
44456;SDS011;30159;49.316;8.558;2023-08-31T10:25:01;1.63;;;0.80;;
44456;SDS011;30159;49.316;8.558;2023-08-31T10:27:35;0.97;;;0.77;;
44456;SDS011;30159;49.316;8.558;2023-08-31T10:30:14;0.80;;;0.70;;
44456;SDS011;30159;49.316;8.558;2023-08-31T10:33:02;1.00;;;0.87;;
44456;SDS011;30159;49.316;8.558;2023-08-31T10:35:47;3.30;;;1.00;;
44456;SDS011;30159;49.316;8.558;2023-08-31T10:38:15;0.90;;;0.73;;
44456;SDS011;30159;49.316;8.558;2023-08-31T10:40:42;1.10;;;0.90;;
44456;SDS011;30159;49.316;8.558;2023-08-31T10:43:26;1.67;;;0.70;;
44456;SDS011;30159;49.316;8.558;2023-08-31T10:45:54;0.97;;;0.80;;
44456;SDS011;30159;49.316;8.558;2023-08-31T10:48:20;0.83;;;0.70;;
44456;SDS011;30159;49.316;8.558;2023-08-31T10:50:47;0.93;;;0.70;;
44456;SDS011;30159;49.316;8.558;2023-08-31T10:53:14;1.90;;;1.67;;
44456;SDS011;30159;49.316;8.558;2023-08-31T10:55:49;2.77;;;0.77;;
44456;SDS011;30159;49.316;8.558;2023-08-31T10:58:16;1.07;;;0.80;;
44456;SDS011;30159;49.316;8.558;2023-08-31T11:00:47;1.53;;;0.70;;
44456;SDS011;30159;49.316;8.558;2023-08-31T11:03:18;0.80;;;0.80;;
44456;SDS011;30159;49.316;8.558;2023-08-31T11:05:50;2.73;;;0.90;;
44456;SDS011;30159;49.316;8.558;2023-08-31T11:08:20;0.70;;;0.60;;
44456;SDS011;30159;49.316;8.558;2023-08-31T11:10:47;1.10;;;0.80;;
44456;SDS011;30159;49.316;8.558;2023-08-31T11:13:15;2.80;;;0.80;;
44456;SDS011;30159;49.316;8.558;2023-08-31T11:15:44;2.30;;;1.40;;
44456;SDS011;30159;49.316;8.558;2023-08-31T11:18:12;0.80;;;0.60;;
44456;SDS011;30159;49.316;8.558;2023-08-31T11:20:41;2.40;;;0.90;;
44456;SDS011;30159;49.316;8.558;2023-08-31T11:23:08;0.80;;;0.80;;
44456;SDS011;30159;49.316;8.558;2023-08-31T11:25:35;1.20;;;1.10;;
44456;SDS011;30159;49.316;8.558;2023-08-31T11:28:03;1.20;;;0.90;;
44456;SDS011;30159;49.316;8.558;2023-08-31T11:30:32;2.03;;;0.87;;
44456;SDS011;30159;49.316;8.558;2023-08-31T11:33:01;1.77;;;1.67;;
44456;SDS011;30159;49.316;8.558;2023-08-31T11:35:31;1.10;;;0.90;;
44456;SDS011;30159;49.316;8.558;2023-08-31T11:38:01;1.20;;;0.90;;
44456;SDS011;30159;49.316;8.558;2023-08-31T11:40:28;1.50;;;0.90;;
44456;SDS011;30159;49.316;8.558;2023-08-31T11:42:55;2.50;;;0.80;;
44456;SDS011;30159;49.316;8.558;2023-08-31T11:45:22;0.90;;;0.70;;
44456;SDS011;30159;49.316;8.558;2023-08-31T11:47:50;1.10;;;0.77;;
44456;SDS011;30159;49.316;8.558;2023-08-31T11:50:18;1.30;;;1.20;;
44456;SDS011;30159;49.316;8.558;2023-08-31T11:52:46;1.17;;;0.80;;
44456;SDS011;30159;49.316;8.558;2023-08-31T11:55:15;2.03;;;0.80;;
44456;SDS011;30159;49.316;8.558;2023-08-31T11:57:47;0.87;;;0.80;;
44456;SDS011;30159;49.316;8.558;2023-08-31T12:00:16;4.70;;;1.10;;
44456;SDS011;30159;49.316;8.558;2023-08-31T12:02:44;1.30;;;0.83;;
44456;SDS011;30159;49.316;8.558;2023-08-31T12:05:12;1.10;;;0.80;;
44456;SDS011;30159;49.316;8.558;2023-08-31T12:07:41;1.07;;;0.90;;
44456;SDS011;30159;49.316;8.558;2023-08-31T12:10:08;1.63;;;0.90;;
44456;SDS011;30159;49.316;8.558;2023-08-31T12:12:37;1.00;;;0.90;;
44456;SDS011;30159;49.316;8.558;2023-08-31T12:15:04;2.70;;;0.93;;
44456;SDS011;30159;49.316;8.558;2023-08-31T12:17:32;1.83;;;1.00;;
44456;SDS011;30159;49.316;8.558;2023-08-31T12:20:03;1.67;;;1.00;;
44456;SDS011;30159;49.316;8.558;2023-08-31T12:22:31;1.47;;;1.30;;
44456;SDS011;30159;49.316;8.558;2023-08-31T12:24:57;1.20;;;1.00;;
44456;SDS011;30159;49.316;8.558;2023-08-31T12:27:24;2.77;;;0.87;;
44456;SDS011;30159;49.316;8.558;2023-08-31T12:29:52;1.33;;;1.10;;
44456;SDS011;30159;49.316;8.558;2023-08-31T12:32:20;0.90;;;0.70;;
44456;SDS011;30159;49.316;8.558;2023-08-31T12:34:47;1.33;;;0.97;;
44456;SDS011;30159;49.316;8.558;2023-08-31T12:37:14;3.00;;;0.97;;
44456;SDS011;30159;49.316;8.558;2023-08-31T12:39:40;2.23;;;1.00;;
44456;SDS011;30159;49.316;8.558;2023-08-31T12:42:10;1.33;;;1.00;;
44456;SDS011;30159;49.316;8.558;2023-08-31T12:44:37;0.93;;;0.83;;
44456;SDS011;30159;49.316;8.558;2023-08-31T12:47:06;1.80;;;1.30;;
44456;SDS011;30159;49.316;8.558;2023-08-31T12:49:33;2.63;;;1.43;;
44456;SDS011;30159;49.316;8.558;2023-08-31T12:51:59;1.93;;;0.90;;
44456;SDS011;30159;49.316;8.558;2023-08-31T12:54:26;1.23;;;1.00;;
44456;SDS011;30159;49.316;8.558;2023-08-31T12:56:52;1.00;;;0.90;;
44456;SDS011;30159;49.316;8.558;2023-08-31T12:59:19;1.23;;;1.13;;
44456;SDS011;30159;49.316;8.558;2023-08-31T13:01:45;1.00;;;0.90;;
44456;SDS011;30159;49.316;8.558;2023-08-31T13:04:13;1.13;;;1.00;;
44456;SDS011;30159;49.316;8.558;2023-08-31T13:06:40;2.43;;;0.80;;
44456;SDS011;30159;49.316;8.558;2023-08-31T13:09:07;1.30;;;1.03;;
44456;SDS011;30159;49.316;8.558;2023-08-31T13:11:34;2.53;;;1.07;;
44456;SDS011;30159;49.316;8.558;2023-08-31T13:14:01;1.77;;;1.00;;
44456;SDS011;30159;49.316;8.558;2023-08-31T13:16:27;1.17;;;1.00;;
44456;SDS011;30159;49.316;8.558;2023-08-31T13:18:54;3.30;;;0.90;;
44456;SDS011;30159;49.316;8.558;2023-08-31T13:21:22;1.20;;;1.03;;
44456;SDS011;30159;49.316;8.558;2023-08-31T13:23:48;1.40;;;1.00;;
44456;SDS011;30159;49.316;8.558;2023-08-31T13:26:16;1.60;;;1.50;;
44456;SDS011;30159;49.316;8.558;2023-08-31T13:28:43;2.70;;;1.00;;
44456;SDS011;30159;49.316;8.558;2023-08-31T13:31:10;1.43;;;1.20;;
44456;SDS011;30159;49.316;8.558;2023-08-31T13:33:37;1.00;;;0.90;;
44456;SDS011;30159;49.316;8.558;2023-08-31T13:36:03;1.10;;;0.93;;
44456;SDS011;30159;49.316;8.558;2023-08-31T13:38:32;1.00;;;0.80;;
44456;SDS011;30159;49.316;8.558;2023-08-31T13:40:59;2.80;;;0.97;;
44456;SDS011;30159;49.316;8.558;2023-08-31T13:43:25;1.30;;;1.00;;
44456;SDS011;30159;49.316;8.558;2023-08-31T13:45:52;1.13;;;0.80;;
44456;SDS011;30159;49.316;8.558;2023-08-31T13:48:19;1.53;;;1.13;;
44456;SDS011;30159;49.316;8.558;2023-08-31T13:50:47;1.30;;;1.03;;
44456;SDS011;30159;49.316;8.558;2023-08-31T13:53:14;1.50;;;0.90;;
44456;SDS011;30159;49.316;8.558;2023-08-31T13:55:42;2.10;;;1.00;;
44456;SDS011;30159;49.316;8.558;2023-08-31T13:58:09;1.83;;;0.90;;
44456;SDS011;30159;49.316;8.558;2023-08-31T14:00:36;0.93;;;0.90;;
44456;SDS011;30159;49.316;8.558;2023-08-31T14:03:03;0.97;;;0.80;;
44456;SDS011;30159;49.316;8.558;2023-08-31T14:05:30;1.90;;;0.97;;
44456;SDS011;30159;49.316;8.558;2023-08-31T14:07:58;2.60;;;1.00;;
44456;SDS011;30159;49.316;8.558;2023-08-31T14:10:29;1.53;;;0.80;;
44456;SDS011;30159;49.316;8.558;2023-08-31T14:12:59;1.20;;;1.00;;
44456;SDS011;30159;49.316;8.558;2023-08-31T14:15:25;0.90;;;0.80;;
44456;SDS011;30159;49.316;8.558;2023-08-31T14:17:52;0.90;;;0.80;;
44456;SDS011;30159;49.316;8.558;2023-08-31T14:20:19;1.30;;;0.90;;
44456;SDS011;30159;49.316;8.558;2023-08-31T14:22:45;1.03;;;0.93;;
44456;SDS011;30159;49.316;8.558;2023-08-31T14:25:12;1.77;;;1.03;;
44456;SDS011;30159;49.316;8.558;2023-08-31T14:27:39;1.20;;;0.93;;
44456;SDS011;30159;49.316;8.558;2023-08-31T14:30:07;1.17;;;0.90;;
44456;SDS011;30159;49.316;8.558;2023-08-31T14:32:34;1.00;;;0.87;;
44456;SDS011;30159;49.316;8.558;2023-08-31T14:35:01;1.27;;;1.17;;
44456;SDS011;30159;49.316;8.558;2023-08-31T14:37:29;0.80;;;0.70;;
44456;SDS011;30159;49.316;8.558;2023-08-31T14:39:55;1.30;;;0.97;;
44456;SDS011;30159;49.316;8.558;2023-08-31T14:42:22;0.83;;;0.80;;
44456;SDS011;30159;49.316;8.558;2023-08-31T14:44:48;1.37;;;1.20;;
44456;SDS011;30159;49.316;8.558;2023-08-31T14:47:16;2.60;;;1.03;;
44456;SDS011;30159;49.316;8.558;2023-08-31T14:49:43;2.80;;;1.00;;
44456;SDS011;30159;49.316;8.558;2023-08-31T14:52:10;1.40;;;1.00;;